createdAt,value
2023-03-05T00:00:40.420Z,1.00
2023-03-05T00:01:43.107Z,1.00
2023-03-05T00:02:44.740Z,1.00
2023-03-05T00:03:47.502Z,1.00
2023-03-05T00:04:49.127Z,1.00
2023-03-05T00:05:57.241Z,1.00
2023-03-05T00:06:58.850Z,1.00
2023-03-05T00:08:01.457Z,1.00
2023-03-05T00:09:03.441Z,1.00
2023-03-05T00:10:07.128Z,2.00
2023-03-05T00:11:10.155Z,1.00
2023-03-05T00:12:12.877Z,1.00
2023-03-05T00:13:14.496Z,1.00
2023-03-05T00:14:17.121Z,1.00
2023-03-05T00:15:18.930Z,1.00
2023-03-05T00:16:21.675Z,1.00
2023-03-05T00:17:23.491Z,1.00
2023-03-05T00:18:26.229Z,1.00
2023-03-05T00:19:27.867Z,1.00
2023-03-05T00:20:30.449Z,1.50
2023-03-05T00:21:34.355Z,1.00
2023-03-05T00:22:37.832Z,0.25
2023-03-05T00:23:39.445Z,1.00
2023-03-05T00:24:42.100Z,1.00
2023-03-05T00:25:44.285Z,1.00
2023-03-05T00:26:47.020Z,1.00
2023-03-05T00:27:48.625Z,0.50
2023-03-05T00:28:52.355Z,3.00
2023-03-05T00:29:54.002Z,1.00
2023-03-05T00:31:00.059Z,2.50
2023-03-05T00:32:01.792Z,1.00
2023-03-05T00:33:04.604Z,1.00
2023-03-05T00:34:07.501Z,1.00
2023-03-05T00:35:11.022Z,1.00
2023-03-05T00:36:12.685Z,1.00
2023-03-05T00:37:16.602Z,0.00
2023-03-05T00:38:18.218Z,1.00
2023-03-05T00:39:20.941Z,1.00
2023-03-05T00:40:22.759Z,1.00
2023-03-05T00:41:25.385Z,1.00
2023-03-05T00:42:27.016Z,1.00
2023-03-05T00:43:29.610Z,1.00
2023-03-05T00:44:31.224Z,3.00
2023-03-05T00:45:34.142Z,1.00
2023-03-05T00:46:35.830Z,1.00
2023-03-05T00:47:38.477Z,3.00
2023-03-05T00:48:40.067Z,1.50
2023-03-05T00:49:42.635Z,1.00
2023-03-05T00:50:44.528Z,3.00
2023-03-05T00:51:47.163Z,1.00
2023-03-05T00:52:50.157Z,2.00
2023-03-05T00:53:52.794Z,3.00
2023-03-05T00:54:54.408Z,1.00
2023-03-05T00:55:57.180Z,3.00
2023-03-05T00:56:59.754Z,1.00
2023-03-05T00:58:01.401Z,2.50
2023-03-05T00:59:04.014Z,1.00
2023-03-05T01:00:06.799Z,1.00
2023-03-05T01:01:09.442Z,1.00
2023-03-05T01:02:11.047Z,0.75
2023-03-05T01:03:13.685Z,0.75
2023-03-05T01:04:15.371Z,1.00
2023-03-05T01:05:18.010Z,1.00
2023-03-05T01:06:19.817Z,0.00
2023-03-05T01:07:22.407Z,0.00
2023-03-05T01:08:25.532Z,1.00
2023-03-05T01:09:28.276Z,1.00
2023-03-05T01:10:30.188Z,0.00
2023-03-05T01:11:32.942Z,0.00
2023-03-05T01:12:34.568Z,0.00
2023-03-05T01:13:37.449Z,0.00
2023-03-05T01:14:39.061Z,0.00
2023-03-05T01:15:41.636Z,0.00
2023-03-05T01:16:43.346Z,0.00
2023-03-05T01:17:45.922Z,0.00
2023-03-05T01:18:47.539Z,0.25
2023-03-05T01:19:50.115Z,0.00
2023-03-05T01:20:51.723Z,0.75
2023-03-05T01:21:55.108Z,0.00
2023-03-05T01:22:58.909Z,0.00
2023-03-05T01:24:02.943Z,1.00
2023-03-05T01:25:05.037Z,1.00
2023-03-05T01:26:08.492Z,1.00
2023-03-05T01:27:10.166Z,0.75
2023-03-05T01:28:12.998Z,0.75
2023-03-05T01:29:14.602Z,0.00
2023-03-05T01:30:17.373Z,0.00
2023-03-05T01:31:19.010Z,0.50
2023-03-05T01:32:21.689Z,0.00
2023-03-05T01:33:23.337Z,0.50
2023-03-05T01:34:25.914Z,1.00
2023-03-05T01:35:27.695Z,0.00
2023-03-05T01:36:30.300Z,0.00
2023-03-05T01:37:32.108Z,0.00
2023-03-05T01:38:34.688Z,0.00
2023-03-05T01:39:37.684Z,0.00
2023-03-05T01:40:40.276Z,0.00
2023-03-05T01:41:41.902Z,0.00
2023-03-05T01:42:46.963Z,0.00
2023-03-05T01:43:48.589Z,0.00
2023-03-05T01:45:04.957Z,0.00
2023-03-05T01:46:31.873Z,0.00
2023-03-05T01:47:34.468Z,0.00
2023-03-05T01:48:36.089Z,0.00
2023-03-05T01:49:39.241Z,0.00
2023-03-05T01:50:40.910Z,0.00
2023-03-05T01:51:46.829Z,0.00
2023-03-05T01:52:51.399Z,0.00
2023-03-05T01:53:53.409Z,0.00
2023-03-05T01:54:58.038Z,0.00
2023-03-05T01:55:59.640Z,0.00
2023-03-05T01:57:05.701Z,0.00
2023-03-05T01:58:09.313Z,0.00
2023-03-05T01:59:11.960Z,0.00
2023-03-05T02:00:15.854Z,0.00
2023-03-05T02:01:17.672Z,0.00
2023-03-05T02:02:21.972Z,0.00
2023-03-05T02:03:23.617Z,0.00
2023-03-05T02:04:30.009Z,0.00
2023-03-05T02:05:32.547Z,0.00
2023-03-05T02:06:35.144Z,0.00
2023-03-05T02:07:37.941Z,0.00
2023-03-05T02:08:40.516Z,0.00
2023-03-05T02:09:42.233Z,0.00
2023-03-05T02:10:46.956Z,0.00
2023-03-05T02:11:48.572Z,0.00
2023-03-05T02:12:51.507Z,0.00
2023-03-05T02:13:53.123Z,0.00
2023-03-05T02:14:59.449Z,0.00
2023-03-05T02:16:01.358Z,0.00
2023-03-05T02:17:03.924Z,0.00
2023-03-05T02:18:05.872Z,0.00
2023-03-05T02:19:10.634Z,0.00
2023-03-05T02:20:13.812Z,0.00
2023-03-05T02:21:19.476Z,0.00
2023-03-05T02:22:21.884Z,0.00
2023-03-05T02:23:25.721Z,0.00
2023-03-05T02:24:34.671Z,0.00
2023-03-05T02:25:37.274Z,0.00
2023-03-05T02:26:38.892Z,0.00
2023-03-05T02:27:41.474Z,0.00
2023-03-05T02:28:44.576Z,0.00
2023-03-05T02:29:47.420Z,0.00
2023-03-05T02:30:49.145Z,0.00
2023-03-05T02:31:51.814Z,0.00
2023-03-05T02:32:53.443Z,0.00
2023-03-05T02:33:56.937Z,0.00
2023-03-05T02:34:58.534Z,0.00
2023-03-05T02:36:01.244Z,0.00
2023-03-05T02:37:04.686Z,0.00
2023-03-05T02:38:07.300Z,0.00
2023-03-05T02:39:09.696Z,0.00
2023-03-05T02:40:13.338Z,0.00
2023-03-05T02:41:15.316Z,0.00
2023-03-05T02:42:17.896Z,0.00
2023-03-05T02:43:19.514Z,0.00
2023-03-05T02:44:22.094Z,0.00
2023-03-05T02:45:23.749Z,0.00
2023-03-05T02:46:26.558Z,0.00
2023-03-05T02:47:28.203Z,0.00
2023-03-05T02:48:30.785Z,0.00
2023-03-05T02:49:33.363Z,0.00
2023-03-05T02:50:35.004Z,0.00
2023-03-05T02:51:37.764Z,0.00
2023-03-05T02:52:40.728Z,0.00
2023-03-05T02:53:43.322Z,0.00
2023-03-05T02:54:44.934Z,0.00
2023-03-05T02:55:48.101Z,0.00
2023-03-05T02:56:49.941Z,0.00
2023-03-05T02:57:52.542Z,0.00
2023-03-05T02:58:54.156Z,0.00
2023-03-05T02:59:56.803Z,0.00
2023-03-05T03:00:58.450Z,0.00
2023-03-05T03:02:01.117Z,0.00
2023-03-05T03:03:02.769Z,0.00
2023-03-05T03:04:05.516Z,0.50
2023-03-05T03:05:08.072Z,0.00
2023-03-05T03:06:10.676Z,0.00
2023-03-05T03:07:12.444Z,0.00
2023-03-05T03:08:16.913Z,0.00
2023-03-05T03:09:18.547Z,0.00
2023-03-05T03:10:21.276Z,0.25
2023-03-05T03:11:22.903Z,0.00
2023-03-05T03:12:25.524Z,0.00
2023-03-05T03:13:27.135Z,0.00
2023-03-05T03:14:32.523Z,0.00
2023-03-05T03:15:34.774Z,0.50
2023-03-05T03:16:37.387Z,0.00
2023-03-05T03:17:39.110Z,0.00
2023-03-05T03:18:41.778Z,0.00
2023-03-05T03:19:43.425Z,0.00
2023-03-05T03:20:46.042Z,0.75
2023-03-05T03:21:49.859Z,0.00
2023-03-05T03:22:52.553Z,1.00
2023-03-05T03:23:55.543Z,1.00
2023-03-05T03:24:58.129Z,0.00
2023-03-05T03:25:59.765Z,1.00
2023-03-05T03:27:02.469Z,1.00
2023-03-05T03:28:04.212Z,1.00
2023-03-05T03:29:06.800Z,1.00
2023-03-05T03:30:09.657Z,1.00
2023-03-05T03:31:12.350Z,1.00
2023-03-05T03:32:14.036Z,1.00
2023-03-05T03:33:18.296Z,1.00
2023-03-05T03:34:20.052Z,1.00
2023-03-05T03:35:22.818Z,1.00
2023-03-05T03:36:24.466Z,3.00
2023-03-05T03:37:27.211Z,3.00
2023-03-05T03:38:28.850Z,1.00
2023-03-05T03:39:32.792Z,1.00
2023-03-05T03:40:35.746Z,1.00
2023-03-05T03:41:38.438Z,1.00
2023-03-05T03:42:40.044Z,1.00
2023-03-05T03:43:42.745Z,1.00
2023-03-05T03:44:44.390Z,0.75
2023-03-05T03:45:47.031Z,1.00
2023-03-05T03:46:49.067Z,0.00
2023-03-05T03:47:51.748Z,1.00
2023-03-05T03:48:53.391Z,0.00
2023-03-05T03:49:55.993Z,1.00
2023-03-05T03:50:57.620Z,1.00
2023-03-05T03:52:00.431Z,0.00
2023-03-05T03:53:02.032Z,1.00
2023-03-05T03:54:05.230Z,0.00
2023-03-05T03:55:09.166Z,0.00
2023-03-05T03:56:11.748Z,1.00
2023-03-05T03:57:13.363Z,0.50
2023-03-05T03:58:16.016Z,0.75
2023-03-05T03:59:17.693Z,1.00
2023-03-05T04:00:20.842Z,0.75
2023-03-05T04:01:22.480Z,1.00
2023-03-05T04:02:25.162Z,1.00
2023-03-05T04:03:26.834Z,1.00
2023-03-05T04:04:30.415Z,1.00
2023-03-05T04:05:32.083Z,1.00
2023-03-05T04:06:34.808Z,1.00
2023-03-05T04:07:36.426Z,1.00
2023-03-05T04:08:39.015Z,2.00
2023-03-05T04:09:40.756Z,1.00
2023-03-05T04:10:44.712Z,1.00
2023-03-05T04:11:46.345Z,1.00
2023-03-05T04:12:48.952Z,1.00
2023-03-05T04:13:50.658Z,1.00
2023-03-05T04:14:53.434Z,1.00
2023-03-05T04:15:55.180Z,1.00
2023-03-05T04:16:57.812Z,1.00
2023-03-05T04:17:59.513Z,1.00
2023-03-05T04:19:02.099Z,1.00
2023-03-05T04:20:05.419Z,2.00
2023-03-05T04:21:08.022Z,1.00
2023-03-05T04:22:10.597Z,2.00
2023-03-05T04:23:13.183Z,1.50
2023-03-05T04:24:15.105Z,3.00
2023-03-05T04:25:18.028Z,2.50
2023-03-05T04:26:20.991Z,1.00
2023-03-05T04:27:23.575Z,3.00
2023-03-05T04:28:25.211Z,1.00
2023-03-05T04:29:27.940Z,1.00
2023-03-05T04:30:29.625Z,1.00
2023-03-05T04:31:32.247Z,2.50
2023-03-05T04:32:33.904Z,2.50
2023-03-05T04:33:36.572Z,3.00
2023-03-05T04:34:38.213Z,3.00
2023-03-05T04:35:40.848Z,1.00
2023-03-05T04:36:42.524Z,1.50
2023-03-05T04:37:45.142Z,3.00
2023-03-05T04:38:47.824Z,1.50
2023-03-05T04:39:49.470Z,3.00
2023-03-05T04:40:52.102Z,3.00
2023-03-05T04:41:55.073Z,2.50
2023-03-05T04:42:57.650Z,1.00
2023-03-05T04:43:59.265Z,1.50
2023-03-05T04:45:01.853Z,3.50
2023-03-05T04:46:03.652Z,3.00
2023-03-05T04:47:06.477Z,3.00
2023-03-05T04:48:08.151Z,3.00
2023-03-05T04:49:10.750Z,2.50
2023-03-05T04:50:12.640Z,3.00
2023-03-05T04:51:15.264Z,3.00
2023-03-05T04:52:16.867Z,3.00
2023-03-05T04:53:19.466Z,3.00
2023-03-05T04:54:21.097Z,3.00
2023-03-05T04:55:23.695Z,5.00
2023-03-05T04:56:25.461Z,5.00
2023-03-05T04:57:29.454Z,4.50
2023-03-05T04:58:31.067Z,5.00
2023-03-05T04:59:33.696Z,3.00
2023-03-05T05:00:35.306Z,5.00
2023-03-05T05:01:38.767Z,5.00
2023-03-05T05:02:40.830Z,5.00
2023-03-05T05:03:43.447Z,5.25
2023-03-05T05:04:45.872Z,3.50
2023-03-05T05:05:55.311Z,4.50
2023-03-05T05:06:57.209Z,5.00
2023-03-05T05:07:59.806Z,5.00
2023-03-05T05:09:01.444Z,5.00
2023-03-05T05:10:04.419Z,5.00
2023-03-05T05:11:06.876Z,5.00
2023-03-05T05:12:10.542Z,5.00
2023-03-05T05:13:13.521Z,6.75
2023-03-05T05:14:16.426Z,5.00
2023-03-05T05:15:18.171Z,6.00
2023-03-05T05:16:20.828Z,6.50
2023-03-05T05:17:22.613Z,6.75
2023-03-05T05:18:25.309Z,5.00
2023-03-05T05:19:27.029Z,6.75
2023-03-05T05:20:30.014Z,5.50
2023-03-05T05:21:31.749Z,5.50
2023-03-05T05:22:34.473Z,6.00
2023-03-05T05:23:36.231Z,5.75
2023-03-05T05:24:38.842Z,5.50
2023-03-05T05:25:40.515Z,5.00
2023-03-05T05:26:43.119Z,5.25
2023-03-05T05:27:45.883Z,5.00
2023-03-05T05:28:49.834Z,5.00
2023-03-05T05:29:52.788Z,5.00
2023-03-05T05:30:55.540Z,5.00
2023-03-05T05:31:57.378Z,5.00
2023-03-05T05:33:00.189Z,4.00
2023-03-05T05:34:01.901Z,5.00
2023-03-05T05:35:05.657Z,3.00
2023-03-05T05:36:08.995Z,5.00
2023-03-05T05:37:11.619Z,5.00
2023-03-05T05:38:13.364Z,4.50
2023-03-05T05:39:15.966Z,3.00
2023-03-05T05:40:17.637Z,3.00
2023-03-05T05:41:20.298Z,3.00
2023-03-05T05:42:22.841Z,3.00
2023-03-05T05:43:25.608Z,3.00
2023-03-05T05:44:28.592Z,3.00
2023-03-05T05:45:31.302Z,3.00
2023-03-05T05:46:33.119Z,3.00
2023-03-05T05:47:35.786Z,2.50
2023-03-05T05:48:37.719Z,3.00
2023-03-05T05:49:40.339Z,3.00
2023-03-05T05:50:42.129Z,1.00
2023-03-05T05:51:44.759Z,2.00
2023-03-05T05:52:46.439Z,1.00
2023-03-05T05:53:49.268Z,1.00
2023-03-05T05:54:51.884Z,1.00
2023-03-05T05:55:53.513Z,1.00
2023-03-05T05:56:56.141Z,1.00
2023-03-05T05:57:57.771Z,1.00
2023-03-05T05:59:00.604Z,1.00
2023-03-05T06:00:04.520Z,1.50
2023-03-05T06:01:13.391Z,1.00
2023-03-05T06:02:15.051Z,1.00
2023-03-05T06:03:17.696Z,1.00
2023-03-05T06:04:19.448Z,1.00
2023-03-05T06:05:22.265Z,1.50
2023-03-05T06:06:24.374Z,2.00
2023-03-05T06:07:26.986Z,1.00
2023-03-05T06:08:28.641Z,3.00
2023-03-05T06:09:31.309Z,3.00
2023-03-05T06:10:32.945Z,2.00
2023-03-05T06:11:35.551Z,3.00
2023-03-05T06:12:37.184Z,1.50
2023-03-05T06:13:39.839Z,3.00
2023-03-05T06:14:41.495Z,3.00
2023-03-05T06:15:45.465Z,2.00
2023-03-05T06:16:47.176Z,3.50
2023-03-05T06:17:49.791Z,3.00
2023-03-05T06:18:51.490Z,3.00
2023-03-05T06:19:55.817Z,3.00
2023-03-05T06:20:57.699Z,2.00
2023-03-05T06:22:00.301Z,1.00
2023-03-05T06:23:01.924Z,3.00
2023-03-05T06:24:04.895Z,3.00
2023-03-05T06:25:07.810Z,3.00
2023-03-05T06:26:11.772Z,3.00
2023-03-05T06:27:13.407Z,3.00
2023-03-05T06:28:16.016Z,2.00
2023-03-05T06:29:17.886Z,1.00
2023-03-05T06:30:20.670Z,1.00
2023-03-05T06:31:25.613Z,1.00
2023-03-05T06:32:28.387Z,1.00
2023-03-05T06:33:30.146Z,1.00
2023-03-05T06:34:32.798Z,1.00
2023-03-05T06:35:34.500Z,2.00
2023-03-05T06:36:37.149Z,2.00
2023-03-05T06:37:38.794Z,1.00
2023-03-05T06:38:41.555Z,2.00
2023-03-05T06:39:43.205Z,3.00
2023-03-05T06:40:45.901Z,3.00
2023-03-05T06:41:51.395Z,3.00
2023-03-05T06:42:54.143Z,3.00
2023-03-05T06:43:55.824Z,3.00
2023-03-05T06:44:58.421Z,3.00
2023-03-05T06:46:03.600Z,5.00
2023-03-05T06:47:07.682Z,3.00
2023-03-05T06:48:09.339Z,3.50
2023-03-05T06:49:11.956Z,5.00
2023-03-05T06:50:13.791Z,5.00
2023-03-05T06:51:17.097Z,5.00
2023-03-05T06:52:18.723Z,5.00
2023-03-05T06:53:21.363Z,5.00
2023-03-05T06:54:22.990Z,3.00
2023-03-05T06:55:25.601Z,6.75
2023-03-05T06:56:27.551Z,6.50
2023-03-05T06:57:30.151Z,7.75
2023-03-05T06:58:31.775Z,6.75
2023-03-05T06:59:34.381Z,6.75
2023-03-05T07:00:36.011Z,6.50
2023-03-05T07:01:38.773Z,6.75
2023-03-05T07:02:42.833Z,5.25
2023-03-05T07:03:44.568Z,7.25
2023-03-05T07:04:47.360Z,7.25
2023-03-05T07:05:48.990Z,8.00
2023-03-05T07:06:51.647Z,7.25
2023-03-05T07:07:53.298Z,6.75
2023-03-05T07:08:56.050Z,6.75
2023-03-05T07:09:57.700Z,8.00
2023-03-05T07:11:00.365Z,7.75
2023-03-05T07:12:02.024Z,6.75
2023-03-05T07:13:04.640Z,8.00
2023-03-05T07:14:06.629Z,10.00
2023-03-05T07:15:10.150Z,8.50
2023-03-05T07:16:14.589Z,8.75
2023-03-05T07:17:17.459Z,9.25
2023-03-05T07:18:20.466Z,10.00
2023-03-05T07:19:23.094Z,8.00
2023-03-05T07:20:24.722Z,12.00
2023-03-05T07:21:28.467Z,10.50
2023-03-05T07:22:30.239Z,10.50
2023-03-05T07:23:32.865Z,13.00
2023-03-05T07:24:35.482Z,10.00
2023-03-05T07:25:37.262Z,12.50
2023-03-05T07:26:39.854Z,12.00
2023-03-05T07:27:41.792Z,12.00
2023-03-05T07:28:44.426Z,14.00
2023-03-05T07:29:47.026Z,14.00
2023-03-05T07:30:55.890Z,15.75
2023-03-05T07:31:58.562Z,12.50
2023-03-05T07:33:00.376Z,12.25
2023-03-05T07:34:04.508Z,17.25
2023-03-05T07:35:07.265Z,14.25
2023-03-05T07:36:10.090Z,13.50
2023-03-05T07:37:11.748Z,12.00
2023-03-05T07:38:14.467Z,13.00
2023-03-05T07:39:17.465Z,14.00
2023-03-05T07:40:20.253Z,13.00
2023-03-05T07:41:23.495Z,17.75
2023-03-05T07:42:26.350Z,13.00
2023-03-05T07:43:28.021Z,12.00
2023-03-05T07:44:30.641Z,10.75
2023-03-05T07:45:32.268Z,14.00
2023-03-05T07:46:35.060Z,15.00
2023-03-05T07:47:36.840Z,12.00
2023-03-05T07:48:39.646Z,11.75
2023-03-05T07:49:43.613Z,12.50
2023-03-05T07:50:45.257Z,15.75
2023-03-05T07:51:47.905Z,12.50
2023-03-05T07:52:49.558Z,13.00
2023-03-05T07:53:52.769Z,11.75
2023-03-05T07:54:54.418Z,12.00
2023-03-05T07:55:57.050Z,12.00
2023-03-05T07:56:58.691Z,14.00
2023-03-05T07:58:01.318Z,16.50
2023-03-05T07:59:04.799Z,10.00
2023-03-05T08:00:08.756Z,12.00
2023-03-05T08:01:13.444Z,10.25
2023-03-05T08:02:16.544Z,10.25
2023-03-05T08:03:18.275Z,10.00
2023-03-05T08:04:20.974Z,9.00
2023-03-05T08:05:23.989Z,8.75
2023-03-05T08:06:26.656Z,8.75
2023-03-05T08:07:29.388Z,7.00
2023-03-05T08:08:31.043Z,7.00
2023-03-05T08:09:33.831Z,7.00
2023-03-05T08:10:36.504Z,8.00
2023-03-05T08:11:39.419Z,8.50
2023-03-05T08:12:42.068Z,8.75
2023-03-05T08:13:43.868Z,7.25
2023-03-05T08:14:48.438Z,7.00
2023-03-05T08:15:50.136Z,7.00
2023-03-05T08:16:53.019Z,8.00
2023-03-05T08:17:55.637Z,7.00
2023-03-05T08:18:58.086Z,8.00
2023-03-05T08:20:05.337Z,8.00
2023-03-05T08:21:15.478Z,8.00
2023-03-05T08:22:20.410Z,7.00
2023-03-05T08:23:22.073Z,7.00
2023-03-05T08:24:29.353Z,8.00
2023-03-05T08:25:31.525Z,10.00
2023-03-05T08:26:35.200Z,10.00
2023-03-05T08:27:38.969Z,7.50
2023-03-05T08:28:41.589Z,7.00
2023-03-05T08:29:43.260Z,8.00
2023-03-05T08:30:45.991Z,8.00
2023-03-05T08:31:47.785Z,5.50
2023-03-05T08:32:50.568Z,5.00
2023-03-05T08:33:52.889Z,4.50
2023-03-05T08:34:58.334Z,5.00
2023-03-05T08:36:00.119Z,6.75
2023-03-05T08:37:04.132Z,5.00
2023-03-05T08:38:06.216Z,6.75
2023-03-05T08:39:09.919Z,3.00
2023-03-05T08:40:12.592Z,3.00
2023-03-05T08:41:15.367Z,4.00
2023-03-05T08:42:17.024Z,3.00
2023-03-05T08:43:20.368Z,5.00
2023-03-05T08:44:22.003Z,5.00
2023-03-05T08:45:24.660Z,4.00
2023-03-05T08:46:26.417Z,5.00
2023-03-05T08:47:29.050Z,3.00
2023-03-05T08:48:31.603Z,5.00
2023-03-05T08:49:34.224Z,4.50
2023-03-05T08:50:38.603Z,3.00
2023-03-05T08:51:41.651Z,3.00
2023-03-05T08:52:44.700Z,3.00
2023-03-05T08:53:47.436Z,3.00
2023-03-05T08:54:49.207Z,5.00
2023-03-05T08:55:55.324Z,3.50
2023-03-05T08:56:58.045Z,3.00
2023-03-05T08:57:59.701Z,3.00
2023-03-05T08:59:02.743Z,3.00
2023-03-05T09:00:07.208Z,2.50
2023-03-05T09:01:08.963Z,3.00
2023-03-05T09:02:11.914Z,3.00
2023-03-05T09:03:14.938Z,3.00
2023-03-05T09:04:17.639Z,3.00
2023-03-05T09:05:19.553Z,3.00
2023-03-05T09:06:22.335Z,5.00
2023-03-05T09:07:24.110Z,1.00
2023-03-05T09:08:28.887Z,2.50
2023-03-05T09:09:32.822Z,3.00
2023-03-05T09:10:34.471Z,2.50
2023-03-05T09:11:37.275Z,2.50
2023-03-05T09:12:38.988Z,1.50
2023-03-05T09:13:41.603Z,3.00
2023-03-05T09:14:43.266Z,1.00
2023-03-05T09:15:45.866Z,1.50
2023-03-05T09:16:47.520Z,1.50
2023-03-05T09:17:50.242Z,3.00
2023-03-05T09:18:51.875Z,2.50
2023-03-05T09:19:54.505Z,3.00
2023-03-05T09:20:56.376Z,3.00
2023-03-05T09:21:58.999Z,1.00
2023-03-05T09:23:00.698Z,1.00
2023-03-05T09:24:05.004Z,3.00
2023-03-05T09:25:08.858Z,1.00
2023-03-05T09:26:12.117Z,2.50
2023-03-05T09:27:14.749Z,2.50
2023-03-05T09:28:16.570Z,3.00
2023-03-05T09:29:19.194Z,2.00
2023-03-05T09:30:21.249Z,3.00
2023-03-05T09:31:23.986Z,3.00
2023-03-05T09:32:25.786Z,1.50
2023-03-05T09:33:28.478Z,1.00
2023-03-05T09:34:30.128Z,3.00
2023-03-05T09:35:35.762Z,3.00
2023-03-05T09:36:37.494Z,3.00
2023-03-05T09:37:40.116Z,3.00
2023-03-05T09:38:41.852Z,3.00
2023-03-05T09:39:45.829Z,5.00
2023-03-05T09:40:52.348Z,3.00
2023-03-05T09:42:12.708Z,3.00
2023-03-05T09:43:20.802Z,3.00
2023-03-05T09:44:26.230Z,4.00
2023-03-05T09:45:28.684Z,3.00
2023-03-05T09:46:39.016Z,3.00
2023-03-05T09:47:46.514Z,4.50
2023-03-05T09:48:52.642Z,5.00
2023-03-05T09:49:58.127Z,5.00
2023-03-05T09:51:01.860Z,5.00
2023-03-05T09:52:06.866Z,5.25
2023-03-05T09:53:16.667Z,3.00
2023-03-05T09:54:19.993Z,5.00
2023-03-05T09:55:26.557Z,5.00
2023-03-05T09:56:29.646Z,5.00
2023-03-05T09:57:36.419Z,6.00
2023-03-05T09:58:38.922Z,6.50
2023-03-05T09:59:45.431Z,5.50
2023-03-05T10:00:47.786Z,6.75
2023-03-05T10:01:50.407Z,7.25
2023-03-05T10:02:53.621Z,8.00
2023-03-05T10:03:58.079Z,6.00
2023-03-05T10:05:03.008Z,6.00
2023-03-05T10:06:07.984Z,8.00
2023-03-05T10:07:13.471Z,6.00
2023-03-05T10:08:16.116Z,6.00
2023-03-05T10:09:22.275Z,6.25
2023-03-05T10:10:26.130Z,8.00
2023-03-05T10:11:38.989Z,9.00
2023-03-05T10:12:42.709Z,6.75
2023-03-05T10:13:44.555Z,8.00
2023-03-05T10:14:47.198Z,5.50
2023-03-05T10:15:51.984Z,11.00
2023-03-05T10:17:06.078Z,6.75
2023-03-05T10:18:14.432Z,7.75
2023-03-05T10:19:19.869Z,7.25
2023-03-05T10:20:35.335Z,6.75
2023-03-05T10:21:40.316Z,6.00
2023-03-05T10:22:48.093Z,7.00
2023-03-05T10:23:56.621Z,5.25
2023-03-05T10:25:11.091Z,5.00
2023-03-05T10:26:20.530Z,6.00
2023-03-05T10:27:30.603Z,7.00
2023-03-05T10:28:39.758Z,7.50
2023-03-05T10:30:03.630Z,5.00
2023-03-05T10:31:11.644Z,7.00
2023-03-05T10:32:20.609Z,5.00
2023-03-05T10:33:24.536Z,5.50
2023-03-05T10:34:55.192Z,5.00
2023-03-05T10:36:16.208Z,5.00
2023-03-05T10:37:33.195Z,6.50
2023-03-05T10:38:42.965Z,6.50
2023-03-05T10:39:56.144Z,5.50
2023-03-05T10:40:58.917Z,5.00
2023-03-05T10:42:06.115Z,5.00
2023-03-05T10:43:14.006Z,3.50
2023-03-05T10:44:17.109Z,5.50
2023-03-05T10:45:21.259Z,3.00
2023-03-05T10:46:23.996Z,3.00
2023-03-05T10:47:27.810Z,3.00
2023-03-05T10:48:34.050Z,3.00
2023-03-05T10:49:38.497Z,3.00
2023-03-05T10:50:42.861Z,3.00
2023-03-05T10:51:48.521Z,3.00
2023-03-05T10:52:52.653Z,3.00
2023-03-05T10:53:56.848Z,2.00
2023-03-05T10:54:58.471Z,3.00
2023-03-05T10:56:03.291Z,4.00
2023-03-05T10:57:15.919Z,3.00
2023-03-05T10:58:18.547Z,3.00
2023-03-05T10:59:20.191Z,3.00
2023-03-05T11:00:23.699Z,3.00
2023-03-05T11:01:26.122Z,3.00
2023-03-05T11:02:28.822Z,5.50
2023-03-05T11:03:46.804Z,3.00
2023-03-05T11:04:49.574Z,4.50
2023-03-05T11:05:51.657Z,3.00
2023-03-05T11:06:54.307Z,5.00
2023-03-05T11:07:55.955Z,5.00
2023-03-05T11:09:21.519Z,4.00
2023-03-05T11:10:26.061Z,5.00
2023-03-05T11:11:28.731Z,5.00
2023-03-05T11:12:32.790Z,6.75
2023-03-05T11:13:44.003Z,6.50
2023-03-05T11:14:47.595Z,5.00
2023-03-05T11:15:59.144Z,6.75
2023-03-05T11:17:02.014Z,5.50
2023-03-05T11:18:15.990Z,6.75
2023-03-05T11:19:20.405Z,7.00
2023-03-05T11:20:33.112Z,5.00
2023-03-05T11:21:35.767Z,5.00
2023-03-05T11:22:37.609Z,5.00
2023-03-05T11:23:40.228Z,7.25
2023-03-05T11:24:41.893Z,6.75
2023-03-05T11:25:58.834Z,6.75
2023-03-05T11:27:00.660Z,5.50
2023-03-05T11:28:04.887Z,7.00
2023-03-05T11:29:17.922Z,6.00
2023-03-05T11:30:21.129Z,3.50
2023-03-05T11:31:24.891Z,5.00
2023-03-05T11:32:27.336Z,5.00
2023-03-05T11:33:30.147Z,5.00
2023-03-05T11:34:35.418Z,5.00
2023-03-05T11:35:38.152Z,5.00
2023-03-05T11:36:41.755Z,5.50
2023-03-05T11:37:43.405Z,5.00
2023-03-05T11:38:46.690Z,6.75
2023-03-05T11:39:50.154Z,7.00
2023-03-05T11:40:52.216Z,7.75
2023-03-05T11:41:56.911Z,5.00
2023-03-05T11:42:59.724Z,5.00
2023-03-05T11:44:05.724Z,5.25
2023-03-05T11:45:10.221Z,6.00
2023-03-05T11:46:12.851Z,7.00
2023-03-05T11:47:18.614Z,5.50
2023-03-05T11:48:22.610Z,5.50
2023-03-05T11:49:26.606Z,7.00
2023-03-05T11:50:28.934Z,7.25
2023-03-05T11:51:33.961Z,6.75
2023-03-05T11:52:39.812Z,5.00
2023-03-05T11:53:42.635Z,6.50
2023-03-05T11:54:53.969Z,8.00
2023-03-05T11:55:59.008Z,7.00
2023-03-05T11:57:00.955Z,5.50
2023-03-05T11:58:12.326Z,8.00
2023-03-05T11:59:17.828Z,8.75
2023-03-05T12:00:22.479Z,9.25
2023-03-05T12:01:25.415Z,7.25
2023-03-05T12:02:28.265Z,5.25
2023-03-05T12:03:32.645Z,8.00
2023-03-05T12:04:34.303Z,7.50
2023-03-05T12:05:37.163Z,8.00
2023-03-05T12:06:40.941Z,8.00
2023-03-05T12:07:45.204Z,8.00
2023-03-05T12:08:49.527Z,9.50
2023-03-05T12:09:52.789Z,7.00
2023-03-05T12:10:54.568Z,6.75
2023-03-05T12:11:59.470Z,7.50
2023-03-05T12:13:04.790Z,8.00
2023-03-05T12:14:10.342Z,6.75
2023-03-05T12:15:47.742Z,7.25
2023-03-05T12:16:51.509Z,7.00
2023-03-05T12:17:59.165Z,7.00
2023-03-05T12:19:10.006Z,6.75
2023-03-05T12:20:12.876Z,8.00
2023-03-05T12:21:17.650Z,8.00
2023-03-05T12:22:21.168Z,7.75
2023-03-05T12:23:22.951Z,7.50
2023-03-05T12:24:36.706Z,6.75
2023-03-05T12:25:46.338Z,8.75
2023-03-05T12:26:57.821Z,7.25
2023-03-05T12:28:00.643Z,7.25
2023-03-05T12:29:02.269Z,7.25
2023-03-05T12:30:05.661Z,5.25
2023-03-05T12:31:25.685Z,8.00
2023-03-05T12:32:59.414Z,8.00
2023-03-05T12:34:02.583Z,5.50
2023-03-05T12:35:05.524Z,6.75
2023-03-05T12:36:33.418Z,8.00
2023-03-05T12:37:58.075Z,8.00
2023-03-05T12:39:00.894Z,6.50
2023-03-05T12:40:04.821Z,6.75
2023-03-05T12:41:35.681Z,6.00
2023-03-05T12:42:44.194Z,7.75
2023-03-05T12:43:46.818Z,5.00
2023-03-05T12:45:06.221Z,6.25
2023-03-05T12:46:26.160Z,8.00
2023-03-05T12:47:27.815Z,6.75
2023-03-05T12:48:45.828Z,5.75
2023-03-05T12:49:49.094Z,8.00
2023-03-05T12:50:52.691Z,5.50
2023-03-05T12:51:55.731Z,6.00
2023-03-05T12:52:58.206Z,5.50
2023-03-05T12:54:22.679Z,7.00
2023-03-05T12:55:25.708Z,7.25
2023-03-05T12:56:30.046Z,9.50
2023-03-05T12:57:32.654Z,8.00
2023-03-05T12:58:37.490Z,9.00
2023-03-05T12:59:43.023Z,7.00
2023-03-05T13:00:47.236Z,6.00
2023-03-05T13:01:51.071Z,6.50
2023-03-05T13:02:57.949Z,6.50
2023-03-05T13:04:00.952Z,6.00
2023-03-05T13:05:05.199Z,7.00
2023-03-05T13:06:08.140Z,10.00
2023-03-05T13:07:15.244Z,7.50
2023-03-05T13:08:20.908Z,8.00
2023-03-05T13:09:25.118Z,8.00
2023-03-05T13:10:27.902Z,8.00
2023-03-05T13:11:31.296Z,9.50
2023-03-05T13:12:33.952Z,10.00
2023-03-05T13:13:37.265Z,8.00
2023-03-05T13:14:41.501Z,10.00
2023-03-05T13:15:45.708Z,9.50
2023-03-05T13:16:48.329Z,7.50
2023-03-05T13:17:56.779Z,8.50
2023-03-05T13:18:59.486Z,10.00
2023-03-05T13:20:06.011Z,10.00
2023-03-05T13:21:09.268Z,9.50
2023-03-05T13:22:11.841Z,8.00
2023-03-05T13:23:16.510Z,8.00
2023-03-05T13:24:19.862Z,9.50
2023-03-05T13:25:21.609Z,9.50
2023-03-05T13:26:24.327Z,9.75
2023-03-05T13:27:27.640Z,8.00
2023-03-05T13:28:30.343Z,8.50
2023-03-05T13:29:33.015Z,9.00
2023-03-05T13:30:34.918Z,10.00
2023-03-05T13:31:37.685Z,9.00
2023-03-05T13:32:39.382Z,10.25
2023-03-05T13:33:53.019Z,9.00
2023-03-05T13:34:55.115Z,9.50
2023-03-05T13:35:57.826Z,10.00
2023-03-05T13:37:00.607Z,10.00
2023-03-05T13:38:03.232Z,13.00
2023-03-05T13:39:06.679Z,11.00
2023-03-05T13:40:19.575Z,10.00
2023-03-05T13:41:22.536Z,11.00
2023-03-05T13:42:25.808Z,10.00
2023-03-05T13:43:27.464Z,12.00
2023-03-05T13:44:30.769Z,10.50
2023-03-05T13:45:32.471Z,9.00
2023-03-05T13:46:38.253Z,9.50
2023-03-05T13:47:39.884Z,10.00
2023-03-05T13:48:43.867Z,13.00
2023-03-05T13:49:47.225Z,10.50
2023-03-05T13:50:54.035Z,9.50
2023-03-05T13:51:57.752Z,9.50
2023-03-05T13:53:14.743Z,11.75
2023-03-05T13:54:17.860Z,8.00
2023-03-05T13:55:19.681Z,10.50
2023-03-05T13:56:22.683Z,8.50
2023-03-05T13:57:36.274Z,10.50
2023-03-05T13:58:49.620Z,7.00
2023-03-05T13:59:52.590Z,10.25
2023-03-05T14:01:03.806Z,10.00
2023-03-05T14:02:16.287Z,8.00
2023-03-05T14:03:21.812Z,9.50
2023-03-05T14:04:26.921Z,10.00
2023-03-05T14:05:28.615Z,8.50
2023-03-05T14:06:31.723Z,8.00
2023-03-05T14:07:35.483Z,8.00